createdAt,value
2018-12-31T00:02:20.533Z,13.87
2018-12-31T00:04:54.154Z,13.70
2018-12-31T00:07:27.752Z,15.43
2018-12-31T00:10:01.444Z,14.50
2018-12-31T00:12:34.970Z,16.70
2018-12-31T00:15:08.563Z,13.80
2018-12-31T00:17:42.140Z,14.90
2018-12-31T00:20:15.796Z,13.30
2018-12-31T00:22:49.416Z,13.83
2018-12-31T00:25:22.978Z,16.87
2018-12-31T00:27:56.491Z,16.00
2018-12-31T00:30:30.101Z,15.73
2018-12-31T00:33:03.618Z,17.23
2018-12-31T00:35:37.266Z,17.53
2018-12-31T00:38:10.773Z,17.07
2018-12-31T00:40:44.401Z,18.60
2018-12-31T00:43:17.924Z,16.93
2018-12-31T00:45:51.582Z,17.37
2018-12-31T00:48:25.139Z,18.30
2018-12-31T00:50:58.777Z,16.27
2018-12-31T00:53:32.349Z,18.47
2018-12-31T00:56:05.891Z,17.90
2018-12-31T00:58:39.488Z,18.53
2018-12-31T01:01:13.040Z,17.87
2018-12-31T01:03:46.554Z,19.57
2018-12-31T01:06:20.108Z,19.67
2018-12-31T01:08:53.627Z,18.70
2018-12-31T01:11:27.252Z,19.17
2018-12-31T01:14:00.767Z,19.10
2018-12-31T01:16:34.410Z,18.50
2018-12-31T01:19:07.939Z,18.13
2018-12-31T01:21:41.476Z,18.83
2018-12-31T01:24:14.912Z,20.10
2018-12-31T01:26:48.382Z,18.50
2018-12-31T01:29:21.898Z,19.20
2018-12-31T01:31:55.519Z,19.07
2018-12-31T01:34:29.040Z,21.30
2018-12-31T01:37:02.669Z,18.93
2018-12-31T01:39:36.197Z,19.47
2018-12-31T01:42:09.811Z,19.97
2018-12-31T01:44:43.328Z,20.37
2018-12-31T01:47:16.880Z,21.57
2018-12-31T01:49:50.462Z,20.07
2018-12-31T01:52:23.930Z,20.83
2018-12-31T01:54:57.459Z,21.43
2018-12-31T01:57:31.184Z,20.57
2018-12-31T02:00:05.711Z,21.50
2018-12-31T02:02:39.208Z,22.20
2018-12-31T02:05:12.719Z,19.70
2018-12-31T02:07:46.359Z,21.27
2018-12-31T02:10:19.998Z,19.93
2018-12-31T02:12:53.636Z,20.73
2018-12-31T02:15:27.084Z,18.40
2018-12-31T02:18:00.759Z,21.37
2018-12-31T02:20:34.264Z,21.17
2018-12-31T02:23:07.960Z,17.87
2018-12-31T02:25:41.461Z,20.20
2018-12-31T02:28:15.010Z,19.80
2018-12-31T02:30:48.808Z,18.83
2018-12-31T02:33:22.363Z,19.50
2018-12-31T02:35:55.869Z,19.87
2018-12-31T02:38:29.416Z,23.20
2018-12-31T02:41:02.991Z,20.43
2018-12-31T02:43:36.617Z,22.87
2018-12-31T02:46:10.131Z,22.53
2018-12-31T02:48:43.808Z,20.73
2018-12-31T02:51:17.306Z,20.97
2018-12-31T02:53:50.779Z,22.40
2018-12-31T02:56:24.289Z,19.33
2018-12-31T02:58:57.940Z,28.13
2018-12-31T03:01:31.450Z,25.27
2018-12-31T03:04:05.082Z,26.60
2018-12-31T03:06:38.596Z,27.90
2018-12-31T03:09:12.149Z,25.47
2018-12-31T03:11:45.681Z,25.53
2018-12-31T03:14:19.222Z,24.00
2018-12-31T03:16:52.721Z,24.93
2018-12-31T03:19:26.356Z,22.63
2018-12-31T03:21:59.786Z,23.87
2018-12-31T03:24:33.347Z,21.83
2018-12-31T03:27:07.818Z,25.90
2018-12-31T03:29:41.358Z,23.67
2018-12-31T03:32:14.890Z,27.37
2018-12-31T03:34:48.340Z,25.57
2018-12-31T03:37:21.975Z,24.13
2018-12-31T03:39:55.536Z,21.83
2018-12-31T03:42:28.973Z,21.83
2018-12-31T03:45:02.601Z,22.17
2018-12-31T03:47:36.173Z,20.73
2018-12-31T03:50:18.006Z,21.70
2018-12-31T03:52:51.527Z,25.93
2018-12-31T03:55:25.090Z,21.50
2018-12-31T03:57:58.591Z,21.00
2018-12-31T04:00:32.290Z,23.63
2018-12-31T04:03:05.800Z,23.00
2018-12-31T04:05:39.435Z,24.13
2018-12-31T04:08:13.062Z,21.53
2018-12-31T04:10:46.620Z,23.83
2018-12-31T04:13:20.138Z,26.17
2018-12-31T04:15:53.703Z,21.80
2018-12-31T04:18:27.200Z,23.27
2018-12-31T04:21:00.748Z,22.07
2018-12-31T04:23:34.196Z,20.90
2018-12-31T04:26:07.660Z,22.37
2018-12-31T04:28:41.203Z,24.17
2018-12-31T04:31:14.768Z,21.23
2018-12-31T04:33:48.280Z,21.17
2018-12-31T04:36:21.917Z,23.50
2018-12-31T04:38:55.353Z,21.20
2018-12-31T04:41:28.895Z,21.33
2018-12-31T04:44:02.468Z,20.10
2018-12-31T04:46:36.028Z,22.93
2018-12-31T04:49:09.646Z,20.40
2018-12-31T04:51:43.202Z,22.67
2018-12-31T04:54:16.706Z,22.53
2018-12-31T04:56:50.319Z,22.10
2018-12-31T04:59:23.768Z,20.37
2018-12-31T05:01:57.371Z,20.90
2018-12-31T05:04:30.948Z,20.93
2018-12-31T05:07:04.491Z,20.40
2018-12-31T05:09:37.999Z,21.13
2018-12-31T05:12:11.824Z,21.00
2018-12-31T05:14:45.362Z,20.80
2018-12-31T05:17:18.903Z,21.73
2018-12-31T05:19:52.357Z,22.23
2018-12-31T05:22:25.912Z,22.77
2018-12-31T05:24:59.523Z,22.83
2018-12-31T05:27:33.113Z,23.67
2018-12-31T05:30:06.682Z,21.97
2018-12-31T05:32:40.248Z,21.40
2018-12-31T05:35:13.678Z,21.53
2018-12-31T05:37:47.312Z,21.00
2018-12-31T05:40:20.814Z,23.10
2018-12-31T05:42:54.276Z,24.67
2018-12-31T05:45:27.785Z,26.83
2018-12-31T05:48:01.331Z,26.33
2018-12-31T05:50:34.840Z,24.67
2018-12-31T05:53:08.468Z,25.73
2018-12-31T05:55:41.976Z,22.60
2018-12-31T05:58:15.550Z,24.17
2018-12-31T06:00:48.970Z,23.93
2018-12-31T06:03:22.642Z,26.90
2018-12-31T06:05:56.223Z,25.60
2018-12-31T06:08:29.775Z,24.00
2018-12-31T06:11:03.314Z,24.70
2018-12-31T06:13:36.869Z,22.20
2018-12-31T06:16:10.385Z,31.03
2018-12-31T06:18:44.021Z,23.33
2018-12-31T06:21:17.600Z,24.73
2018-12-31T06:23:51.175Z,24.87
2018-12-31T06:26:24.683Z,24.17
2018-12-31T06:28:58.217Z,27.17
2018-12-31T06:31:31.741Z,22.47
2018-12-31T06:34:05.383Z,30.03
2018-12-31T06:36:38.996Z,24.17
2018-12-31T06:39:12.709Z,30.70
2018-12-31T06:41:46.220Z,25.90
2018-12-31T06:44:19.754Z,26.17
2018-12-31T06:46:53.323Z,28.87
2018-12-31T06:49:26.962Z,26.73
2018-12-31T06:52:00.539Z,27.10
2018-12-31T06:54:34.190Z,27.93
2018-12-31T06:57:07.764Z,31.20
2018-12-31T06:59:41.359Z,39.93
2018-12-31T07:02:14.880Z,30.73
2018-12-31T07:04:48.368Z,28.60
2018-12-31T07:07:21.806Z,30.30
2018-12-31T07:09:55.429Z,28.00
2018-12-31T07:12:29.003Z,29.50
2018-12-31T07:15:02.654Z,34.20
2018-12-31T07:17:36.112Z,30.17
2018-12-31T07:20:09.762Z,29.13
2018-12-31T07:22:43.314Z,31.47
2018-12-31T07:25:16.793Z,35.00
2018-12-31T07:27:50.371Z,28.80
2018-12-31T07:30:23.933Z,29.30
2018-12-31T07:32:57.472Z,28.17
2018-12-31T07:35:31.144Z,34.57
2018-12-31T07:38:04.607Z,32.33
2018-12-31T07:40:38.074Z,29.23
2018-12-31T07:43:11.589Z,39.53
2018-12-31T07:45:45.149Z,42.37
2018-12-31T07:48:18.658Z,32.07
2018-12-31T07:50:52.201Z,37.30
2018-12-31T07:53:25.709Z,34.03
2018-12-31T07:55:59.252Z,37.43
2018-12-31T07:58:32.677Z,27.23
2018-12-31T08:01:06.211Z,26.50
2018-12-31T08:03:39.655Z,24.87
2018-12-31T08:06:13.194Z,28.17
2018-12-31T08:08:46.646Z,24.00
2018-12-31T08:11:20.209Z,26.43
2018-12-31T08:13:53.718Z,25.43
2018-12-31T08:16:27.258Z,23.63
2018-12-31T08:19:00.789Z,47.50
2018-12-31T08:21:34.344Z,42.10
2018-12-31T08:24:07.845Z,33.77
2018-12-31T08:26:41.420Z,37.80
2018-12-31T08:29:15.019Z,28.37
2018-12-31T08:31:48.623Z,24.50
2018-12-31T08:34:22.060Z,27.20
2018-12-31T08:36:55.598Z,26.33
2018-12-31T08:39:29.094Z,28.43
2018-12-31T08:42:02.643Z,27.43
2018-12-31T08:44:36.618Z,23.47
2018-12-31T08:47:10.200Z,24.20
2018-12-31T08:49:43.762Z,24.40
2018-12-31T08:52:17.346Z,21.40
2018-12-31T08:54:50.964Z,24.33
2018-12-31T08:57:24.519Z,24.90
2018-12-31T08:59:58.086Z,23.00
2018-12-31T09:02:31.635Z,26.37
2018-12-31T09:05:05.649Z,22.33
2018-12-31T09:07:39.212Z,28.53
2018-12-31T09:10:12.692Z,26.13
2018-12-31T09:12:46.245Z,20.97
2018-12-31T09:15:19.688Z,21.40
2018-12-31T09:17:53.279Z,22.80
2018-12-31T09:20:28.428Z,19.40
2018-12-31T09:23:02.111Z,21.20
2018-12-31T09:25:35.712Z,18.30
2018-12-31T09:28:09.270Z,19.10
2018-12-31T09:30:42.850Z,19.73
2018-12-31T09:33:16.518Z,19.27
2018-12-31T09:35:50.030Z,18.20
2018-12-31T09:38:23.679Z,18.07
2018-12-31T09:40:57.185Z,19.40
2018-12-31T09:43:30.746Z,17.07
2018-12-31T09:46:04.258Z,15.17
2018-12-31T09:48:37.800Z,18.10
2018-12-31T09:51:11.468Z,15.23
2018-12-31T09:53:45.084Z,15.33
2018-12-31T09:56:18.593Z,13.00
2018-12-31T09:58:52.139Z,16.03
2018-12-31T10:01:25.685Z,13.47
2018-12-31T10:03:59.387Z,14.67
2018-12-31T10:06:32.965Z,12.13
2018-12-31T10:09:07.006Z,10.90
2018-12-31T10:11:40.375Z,10.07
2018-12-31T10:14:13.982Z,9.23
2018-12-31T10:16:47.559Z,10.03
2018-12-31T10:19:21.018Z,8.73
2018-12-31T10:21:54.546Z,8.83
2018-12-31T10:24:28.248Z,9.93
2018-12-31T10:27:03.516Z,8.90
2018-12-31T10:29:37.141Z,8.50
2018-12-31T10:32:10.816Z,7.97
2018-12-31T10:34:44.289Z,8.07
2018-12-31T10:37:17.859Z,8.97
2018-12-31T10:39:51.400Z,8.57
2018-12-31T10:42:24.932Z,7.83
2018-12-31T10:44:58.489Z,9.43
2018-12-31T10:47:31.993Z,10.13
2018-12-31T10:50:05.931Z,10.10
2018-12-31T10:52:39.503Z,7.93
2018-12-31T10:55:13.109Z,6.53
2018-12-31T10:57:46.569Z,6.93
2018-12-31T11:00:21.754Z,7.03
2018-12-31T11:02:55.297Z,6.07
2018-12-31T11:05:30.473Z,7.13
2018-12-31T11:08:03.983Z,5.90
2018-12-31T11:10:37.448Z,6.00
2018-12-31T11:13:11.050Z,5.63
2018-12-31T11:15:44.618Z,5.47
2018-12-31T11:18:18.133Z,5.17
2018-12-31T11:20:51.746Z,5.30
2018-12-31T11:23:25.316Z,5.53
2018-12-31T11:25:58.875Z,5.23
2018-12-31T11:28:32.378Z,5.60
2018-12-31T11:31:05.926Z,5.60
2018-12-31T11:33:39.515Z,6.27
2018-12-31T11:36:13.121Z,5.80
2018-12-31T11:38:46.635Z,6.10
2018-12-31T11:41:20.118Z,6.33
2018-12-31T11:43:53.544Z,5.53
2018-12-31T11:46:27.095Z,5.60
2018-12-31T11:49:00.522Z,6.10
2018-12-31T11:51:34.117Z,5.63
2018-12-31T11:54:07.621Z,6.30
2018-12-31T11:56:41.091Z,6.33
2018-12-31T11:59:14.612Z,6.67
2018-12-31T12:01:48.227Z,7.13
2018-12-31T12:04:21.649Z,7.37
2018-12-31T12:06:55.212Z,7.60
2018-12-31T12:09:28.643Z,7.33
2018-12-31T12:12:02.196Z,7.97
2018-12-31T12:14:35.784Z,8.10
2018-12-31T12:17:09.475Z,7.70
2018-12-31T12:19:42.968Z,8.57
2018-12-31T12:22:16.435Z,8.20
2018-12-31T12:24:50.437Z,8.60
2018-12-31T12:27:24.163Z,9.20
2018-12-31T12:29:57.694Z,7.27
2018-12-31T12:32:31.300Z,8.33
2018-12-31T12:35:05.105Z,8.90
2018-12-31T12:37:38.649Z,9.27
2018-12-31T12:40:12.187Z,9.00
2018-12-31T12:42:45.737Z,9.17
2018-12-31T12:45:19.169Z,8.80
2018-12-31T12:47:52.712Z,8.77
2018-12-31T12:50:26.218Z,9.40
2018-12-31T12:52:59.841Z,9.20
2018-12-31T12:55:33.429Z,9.00
2018-12-31T12:58:07.134Z,9.33
2018-12-31T13:00:40.793Z,9.85
2018-12-31T13:03:14.614Z,10.47
2018-12-31T13:05:48.049Z,10.63
2018-12-31T13:08:21.681Z,11.33
2018-12-31T13:10:55.179Z,11.20
2018-12-31T13:13:28.813Z,10.57
2018-12-31T13:16:02.331Z,11.53
2018-12-31T13:18:35.931Z,10.77
2018-12-31T13:21:09.445Z,11.80
2018-12-31T13:23:43.093Z,10.63
2018-12-31T13:26:16.610Z,12.27
2018-12-31T13:28:50.229Z,11.90
2018-12-31T13:31:24.039Z,12.03
2018-12-31T13:33:57.660Z,12.87
2018-12-31T13:36:31.172Z,13.00
2018-12-31T13:39:06.049Z,12.10
2018-12-31T13:41:39.681Z,12.33
2018-12-31T13:44:13.217Z,11.50
2018-12-31T13:46:46.737Z,12.10
2018-12-31T13:49:20.350Z,11.70
2018-12-31T13:51:53.800Z,11.70
2018-12-31T13:54:27.266Z,11.17
2018-12-31T13:57:00.781Z,12.27
2018-12-31T13:59:34.551Z,12.67
2018-12-31T14:02:08.074Z,13.20
2018-12-31T14:04:41.771Z,11.63
2018-12-31T14:07:15.296Z,12.50
2018-12-31T14:09:48.844Z,13.10
2018-12-31T14:12:22.319Z,15.20
2018-12-31T14:14:55.949Z,15.53
2018-12-31T14:17:31.335Z,15.83
2018-12-31T14:20:06.731Z,16.23
2018-12-31T14:22:40.164Z,18.27
2018-12-31T14:25:13.777Z,21.03
2018-12-31T14:27:47.696Z,24.53
2018-12-31T14:30:21.268Z,24.23
2018-12-31T14:32:54.776Z,22.07
2018-12-31T14:35:28.325Z,24.87
2018-12-31T14:38:01.879Z,26.43
2018-12-31T14:40:35.439Z,25.53
2018-12-31T14:43:08.977Z,24.97
2018-12-31T14:45:44.488Z,26.43
2018-12-31T14:48:18.003Z,29.63
2018-12-31T14:50:51.749Z,28.40
2018-12-31T14:53:25.180Z,29.23
2018-12-31T14:55:59.174Z,27.37
2018-12-31T14:58:32.684Z,29.77
2018-12-31T15:01:06.308Z,30.17
2018-12-31T15:03:39.878Z,29.63
2018-12-31T15:06:13.366Z,28.07
2018-12-31T15:08:46.938Z,25.87
2018-12-31T15:11:20.485Z,27.07
2018-12-31T15:13:54.087Z,27.00
2018-12-31T15:16:27.655Z,25.90
2018-12-31T15:19:02.211Z,23.63
2018-12-31T15:21:35.810Z,23.67
2018-12-31T15:24:09.503Z,24.70
2018-12-31T15:26:43.148Z,23.60
2018-12-31T15:29:16.658Z,23.63
2018-12-31T15:31:50.219Z,25.00
2018-12-31T15:34:24.025Z,23.37
2018-12-31T15:36:57.608Z,24.03
2018-12-31T15:39:31.115Z,24.63
2018-12-31T15:42:04.811Z,21.97
2018-12-31T15:44:38.241Z,22.33
2018-12-31T15:47:11.895Z,22.77
2018-12-31T15:49:45.491Z,24.10
2018-12-31T15:52:19.035Z,24.17
2018-12-31T15:54:52.482Z,24.43
2018-12-31T15:57:26.038Z,24.10
2018-12-31T15:59:59.550Z,22.33
2018-12-31T16:02:33.134Z,23.70
2018-12-31T16:05:07.268Z,23.67
2018-12-31T16:07:45.588Z,23.60
2018-12-31T16:10:16.325Z,25.43
2018-12-31T16:12:50.450Z,23.67
2018-12-31T16:15:24.035Z,24.07
2018-12-31T16:17:57.673Z,24.02
2018-12-31T16:20:31.182Z,22.43
2018-12-31T16:23:04.766Z,22.40
2018-12-31T16:25:38.286Z,22.00
2018-12-31T16:28:11.833Z,22.83
2018-12-31T16:30:45.276Z,21.80
2018-12-31T16:33:19.556Z,21.73
2018-12-31T16:35:53.145Z,20.73
2018-12-31T16:38:26.888Z,21.47
2018-12-31T16:41:00.400Z,23.33
2018-12-31T16:43:34.034Z,19.97
2018-12-31T16:46:07.609Z,20.17
2018-12-31T16:48:41.150Z,18.93
2018-12-31T16:51:15.125Z,19.53
2018-12-31T16:53:48.749Z,17.63
2018-12-31T16:56:22.199Z,18.80
2018-12-31T16:58:55.774Z,18.20
2018-12-31T17:01:29.372Z,19.13
2018-12-31T17:04:04.185Z,17.83
2018-12-31T17:06:37.720Z,19.47
2018-12-31T17:09:11.327Z,17.83
2018-12-31T17:11:44.848Z,17.20
2018-12-31T17:14:18.482Z,17.27
2018-12-31T17:16:52.084Z,17.77
2018-12-31T17:19:25.551Z,16.63
2018-12-31T17:21:59.063Z,17.33
2018-12-31T17:24:32.609Z,18.87
2018-12-31T17:27:06.210Z,17.50
2018-12-31T17:29:39.831Z,17.83
2018-12-31T17:32:13.279Z,17.90
2018-12-31T17:34:46.738Z,19.47
2018-12-31T17:37:20.250Z,20.10
2018-12-31T17:39:54.117Z,20.60
2018-12-31T17:42:27.552Z,21.70
2018-12-31T17:45:01.180Z,22.30
2018-12-31T17:47:34.715Z,21.70
2018-12-31T17:50:08.245Z,22.73
2018-12-31T17:52:45.892Z,21.77
2018-12-31T17:55:19.620Z,22.77
2018-12-31T17:57:53.359Z,22.43
2018-12-31T18:00:26.913Z,21.27
2018-12-31T18:03:00.422Z,21.27
2018-12-31T18:05:34.052Z,20.17
2018-12-31T18:08:07.859Z,19.90
2018-12-31T18:10:41.432Z,18.47
2018-12-31T18:13:15.019Z,17.27
2018-12-31T18:15:48.687Z,16.80
2018-12-31T18:18:22.492Z,16.27
2018-12-31T18:20:56.128Z,15.63
2018-12-31T18:23:29.775Z,15.70
2018-12-31T18:26:03.316Z,15.13
2018-12-31T18:28:36.819Z,15.37
2018-12-31T18:31:10.456Z,14.53
2018-12-31T18:33:43.965Z,13.90
2018-12-31T18:36:17.553Z,14.70
2018-12-31T18:39:07.225Z,17.27
2018-12-31T18:41:40.842Z,18.40
2018-12-31T18:44:14.473Z,16.23
2018-12-31T18:46:48.093Z,16.73
2018-12-31T18:49:21.627Z,15.23
2018-12-31T18:51:55.298Z,16.43
2018-12-31T18:54:29.012Z,17.00
2018-12-31T18:57:02.562Z,15.83
2018-12-31T18:59:36.143Z,16.77
2018-12-31T19:02:09.782Z,15.67
2018-12-31T19:04:43.380Z,15.37
2018-12-31T19:07:17.107Z,14.30
2018-12-31T19:09:50.623Z,13.33
2018-12-31T19:12:24.292Z,12.53
2018-12-31T19:14:57.811Z,13.07
2018-12-31T19:17:31.430Z,14.23
2018-12-31T19:20:06.222Z,14.03
2018-12-31T19:22:40.000Z,13.53
2018-12-31T19:25:13.686Z,13.00
2018-12-31T19:27:47.421Z,13.13
2018-12-31T19:30:20.961Z,14.40
2018-12-31T19:32:54.846Z,12.50
2018-12-31T19:35:28.554Z,11.20
2018-12-31T19:38:02.219Z,10.83
2018-12-31T19:40:35.659Z,9.73
2018-12-31T19:43:09.587Z,10.13
2018-12-31T19:45:43.175Z,10.20
2018-12-31T19:48:16.896Z,10.43
2018-12-31T19:50:50.379Z,11.07
2018-12-31T19:53:24.105Z,10.80
2018-12-31T19:55:57.661Z,11.63
2018-12-31T19:58:31.118Z,11.17
2018-12-31T20:01:06.323Z,10.20
2018-12-31T20:03:40.143Z,9.30
2018-12-31T20:06:13.765Z,10.40
2018-12-31T20:08:47.300Z,9.67
2018-12-31T20:11:20.936Z,8.73
2018-12-31T20:13:54.474Z,9.50
2018-12-31T20:16:27.984Z,10.63
2018-12-31T20:19:01.462Z,20.47
2018-12-31T20:21:35.040Z,15.33
2018-12-31T20:24:08.581Z,12.33
2018-12-31T20:26:42.166Z,10.60
2018-12-31T20:29:15.628Z,9.93
2018-12-31T20:31:49.067Z,10.10
2018-12-31T20:34:22.605Z,10.90
2018-12-31T20:36:56.108Z,10.63
2018-12-31T20:39:29.735Z,10.90
2018-12-31T20:42:03.249Z,11.20
2018-12-31T20:44:36.872Z,12.10
2018-12-31T20:47:10.404Z,12.10
2018-12-31T20:49:44.011Z,11.40
2018-12-31T20:52:17.595Z,12.07
2018-12-31T20:54:51.132Z,12.47
2018-12-31T20:57:24.637Z,12.40
2018-12-31T20:59:58.178Z,13.07
2018-12-31T21:02:31.729Z,12.47
2018-12-31T21:05:05.777Z,13.13
2018-12-31T21:07:39.290Z,12.60
2018-12-31T21:10:12.850Z,10.00
2018-12-31T21:12:46.358Z,10.07
2018-12-31T21:15:19.902Z,10.10
2018-12-31T21:17:53.474Z,9.60
2018-12-31T21:20:27.091Z,10.00
2018-12-31T21:23:01.084Z,9.57
2018-12-31T21:25:34.767Z,9.37
2018-12-31T21:28:08.325Z,9.50
2018-12-31T21:30:41.941Z,9.77
2018-12-31T21:33:15.837Z,8.27
2018-12-31T21:35:49.456Z,9.50
2018-12-31T21:38:23.847Z,9.40
2018-12-31T21:40:57.398Z,9.73
2018-12-31T21:43:31.686Z,10.27
2018-12-31T21:46:05.314Z,8.87
2018-12-31T21:48:38.853Z,9.63
2018-12-31T21:51:12.492Z,10.00
2018-12-31T21:53:59.477Z,10.30
2018-12-31T21:56:33.034Z,10.63
2018-12-31T21:59:06.548Z,10.83
2018-12-31T22:01:40.035Z,11.50
2018-12-31T22:04:33.729Z,12.67
2018-12-31T22:07:17.505Z,11.70
2018-12-31T22:09:51.055Z,10.10
2018-12-31T22:12:24.614Z,9.83
2018-12-31T22:14:58.117Z,9.53
2018-12-31T22:17:32.092Z,8.70
2018-12-31T22:20:08.585Z,8.10
2018-12-31T22:22:42.453Z,8.30
2018-12-31T22:25:16.342Z,7.37
2018-12-31T22:27:50.367Z,7.40
2018-12-31T22:30:23.968Z,7.50
2018-12-31T22:32:57.501Z,7.10
2018-12-31T22:35:31.161Z,7.10
2018-12-31T22:38:04.891Z,7.43
2018-12-31T22:40:38.404Z,7.10
2018-12-31T22:43:11.872Z,7.70
2018-12-31T22:45:45.639Z,7.73
2018-12-31T22:48:19.263Z,7.23
2018-12-31T22:50:52.765Z,8.77
2018-12-31T22:53:26.373Z,8.73
2018-12-31T22:55:59.896Z,8.90
2018-12-31T22:58:33.495Z,8.63
2018-12-31T23:01:07.294Z,8.53
2018-12-31T23:03:40.911Z,10.13
2018-12-31T23:06:14.422Z,19.00
2018-12-31T23:08:47.888Z,16.37
2018-12-31T23:11:21.356Z,36.57
2018-12-31T23:13:54.918Z,20.40
2018-12-31T23:16:28.425Z,20.00
2018-12-31T23:19:01.903Z,15.60
2018-12-31T23:24:35.468Z,14.13
2018-12-31T23:27:08.970Z,12.83
2018-12-31T23:29:42.441Z,13.33
2018-12-31T23:32:15.966Z,14.23
2018-12-31T23:34:49.516Z,12.07
2018-12-31T23:37:23.116Z,12.37
2018-12-31T23:39:56.612Z,14.00
2018-12-31T23:42:30.211Z,12.67
2018-12-31T23:48:03.569Z,9.13
2018-12-31T23:50:37.047Z,9.57
2018-12-31T23:53:10.647Z,9.50
2018-12-31T23:55:44.392Z,9.83
2018-12-31T23:58:17.903Z,8.60
